createdAt,value
2023-05-22T00:01:18.957Z,100985.45
2023-05-22T00:03:50.203Z,100982.66
2023-05-22T00:06:19.450Z,100984.72
2023-05-22T00:08:48.161Z,100984.46
2023-05-22T00:11:19.265Z,100986.08
2023-05-22T00:13:49.440Z,100984.38
2023-05-22T00:16:19.902Z,100977.48
2023-05-22T00:18:51.544Z,100976.41
2023-05-22T00:21:20.148Z,100976.61
2023-05-22T00:23:51.207Z,100974.20
2023-05-22T00:26:22.943Z,100972.23
2023-05-22T00:28:58.680Z,100968.42
2023-05-22T00:31:27.464Z,100970.09
2023-05-22T00:33:57.004Z,100969.94
2023-05-22T00:36:26.769Z,100970.89
2023-05-22T00:38:57.057Z,100968.79
2023-05-22T00:41:26.912Z,100965.18
2023-05-22T00:43:56.016Z,100966.52
2023-05-22T00:46:25.355Z,100965.46
2023-05-22T00:48:56.864Z,100972.41
2023-05-22T00:51:26.094Z,100967.29
2023-05-22T00:53:55.203Z,100970.08
2023-05-22T00:56:26.605Z,100967.01
2023-05-22T00:58:56.624Z,100968.15
2023-05-22T01:01:32.833Z,100966.95
2023-05-22T01:04:07.319Z,100964.73
2023-05-22T01:06:37.202Z,100966.40
2023-05-22T01:09:12.142Z,100968.24
2023-05-22T01:11:50.771Z,100969.75
2023-05-22T01:14:29.824Z,100967.01
2023-05-22T01:17:08.599Z,100969.00
2023-05-22T01:20:06.957Z,100969.36
2023-05-22T01:23:10.444Z,100970.84
2023-05-22T01:26:17.738Z,100968.48
2023-05-22T01:29:10.920Z,100970.41
2023-05-22T01:31:41.524Z,100967.48
2023-05-22T01:34:12.258Z,100967.39
2023-05-22T01:36:45.504Z,100971.92
2023-05-22T01:39:22.498Z,100972.09
2023-05-22T01:41:51.194Z,100975.28
2023-05-22T01:44:21.090Z,100972.94
2023-05-22T01:46:50.488Z,100968.70
2023-05-22T01:49:19.985Z,100969.01
2023-05-22T01:51:53.939Z,100975.33
2023-05-22T01:54:32.579Z,100976.51
2023-05-22T01:57:02.972Z,100975.04
2023-05-22T01:59:36.849Z,100970.55
2023-05-22T02:02:08.519Z,100972.20
2023-05-22T02:04:42.242Z,100972.85
2023-05-22T02:07:12.650Z,100973.89
2023-05-22T02:09:50.267Z,100973.36
2023-05-22T02:12:23.420Z,100972.54
2023-05-22T02:14:52.189Z,100974.62
2023-05-22T02:17:23.071Z,100971.70
2023-05-22T02:19:52.558Z,100973.60
2023-05-22T02:22:23.996Z,100972.70
2023-05-22T02:24:55.981Z,100974.39
2023-05-22T02:27:28.132Z,100974.05
2023-05-22T02:29:57.225Z,100971.94
2023-05-22T02:32:32.970Z,100971.05
2023-05-22T02:35:04.428Z,100968.88
2023-05-22T02:37:36.334Z,100964.48
2023-05-22T02:40:07.709Z,100964.22
2023-05-22T02:42:39.417Z,100962.98
2023-05-22T02:45:10.572Z,100962.98
2023-05-22T02:47:40.642Z,100960.46
2023-05-22T02:50:23.097Z,100960.80
2023-05-22T02:52:53.044Z,100957.95
2023-05-22T02:55:22.526Z,100957.21
2023-05-22T02:57:52.351Z,100955.88
2023-05-22T03:00:25.036Z,100953.35
2023-05-22T03:02:54.083Z,100955.26
2023-05-22T03:05:22.905Z,100953.35
2023-05-22T03:07:53.839Z,100952.43
2023-05-22T03:10:22.988Z,100950.41
2023-05-22T03:12:51.737Z,100946.23
2023-05-22T03:15:22.810Z,100946.58
2023-05-22T03:17:57.882Z,100946.02
2023-05-22T03:20:32.124Z,100943.48
2023-05-22T03:23:06.856Z,100943.17
2023-05-22T03:25:44.795Z,100941.59
2023-05-22T03:28:17.199Z,100946.60
2023-05-22T03:30:46.191Z,100943.98
2023-05-22T03:33:31.439Z,100941.30
2023-05-22T03:36:00.908Z,100942.89
2023-05-22T03:38:30.203Z,100941.37
2023-05-22T03:40:59.807Z,100942.23
2023-05-22T03:43:29.288Z,100940.47
2023-05-22T03:46:07.973Z,100940.66
2023-05-22T03:48:53.426Z,100935.71
2023-05-22T03:51:22.293Z,100937.94
2023-05-22T03:53:51.896Z,100936.61
2023-05-22T03:56:33.724Z,100940.42
2023-05-22T03:59:03.186Z,100943.66
2023-05-22T04:01:46.426Z,100943.51
2023-05-22T04:04:19.759Z,100943.27
2023-05-22T04:06:54.611Z,100941.52
2023-05-22T04:09:32.135Z,100940.34
2023-05-22T04:12:04.158Z,100944.03
2023-05-22T04:14:33.605Z,100941.23
2023-05-22T04:17:11.106Z,100941.83
2023-05-22T04:19:41.049Z,100940.08
2023-05-22T04:22:14.576Z,100938.50
2023-05-22T04:24:50.516Z,100933.47
2023-05-22T04:27:22.137Z,100932.11
2023-05-22T04:29:53.417Z,100925.68
2023-05-22T04:32:25.911Z,100922.90
2023-05-22T04:35:01.528Z,100918.52
2023-05-22T04:37:41.715Z,100918.11
2023-05-22T04:40:17.837Z,100918.39
2023-05-22T04:42:49.889Z,100917.05
2023-05-22T04:45:35.059Z,100914.64
2023-05-22T04:48:11.425Z,100915.11
2023-05-22T04:50:40.804Z,100915.89
2023-05-22T04:53:13.220Z,100916.36
2023-05-22T04:55:46.506Z,100911.34
2023-05-22T04:58:17.214Z,100911.27
2023-05-22T05:00:51.892Z,100911.10
2023-05-22T05:03:22.228Z,100908.42
2023-05-22T05:05:51.381Z,100910.63
2023-05-22T05:08:23.238Z,100912.23
2023-05-22T05:10:52.543Z,100914.83
2023-05-22T05:13:26.841Z,100914.62
2023-05-22T05:15:59.646Z,100921.23
2023-05-22T05:18:29.173Z,100918.17
2023-05-22T05:21:07.456Z,100920.83
2023-05-22T05:23:37.395Z,100922.90
2023-05-22T05:26:09.465Z,100925.13
2023-05-22T05:28:45.853Z,100927.10
2023-05-22T05:31:17.883Z,100925.79
2023-05-22T05:33:52.738Z,100926.16
2023-05-22T05:37:00.712Z,100919.46
2023-05-22T05:39:29.846Z,100921.02
2023-05-22T05:42:03.172Z,100922.84
2023-05-22T05:44:32.195Z,100923.73
2023-05-22T05:47:02.269Z,100925.77
2023-05-22T05:49:32.714Z,100931.88
2023-05-22T05:52:02.516Z,100925.63
2023-05-22T05:54:32.331Z,100922.73
2023-05-22T05:57:07.070Z,100920.98
2023-05-22T05:59:36.848Z,100922.41
2023-05-22T06:02:23.962Z,100920.59
2023-05-22T06:04:56.090Z,100919.58
2023-05-22T06:07:25.507Z,100922.56
2023-05-22T06:09:56.248Z,100919.77
2023-05-22T06:12:49.457Z,100918.69
2023-05-22T06:15:42.905Z,100914.34
2023-05-22T06:18:22.108Z,100915.42
2023-05-22T06:20:52.680Z,100914.16
2023-05-22T06:23:24.531Z,100912.15
2023-05-22T06:25:54.999Z,100907.13
2023-05-22T06:28:27.813Z,100911.45
2023-05-22T06:30:57.534Z,100906.10
2023-05-22T06:33:42.640Z,100904.40
2023-05-22T06:36:12.108Z,100906.73
2023-05-22T06:38:41.591Z,100908.66
2023-05-22T06:41:18.802Z,100913.36
2023-05-22T06:43:49.214Z,100911.34
2023-05-22T06:46:25.145Z,100912.11
2023-05-22T06:49:08.251Z,100911.46
2023-05-22T06:51:42.608Z,100916.33
2023-05-22T06:54:14.593Z,100914.88
2023-05-22T06:56:46.943Z,100909.11
2023-05-22T06:59:20.378Z,100909.39
2023-05-22T07:02:16.529Z,100906.10
2023-05-22T07:05:09.254Z,100905.39
2023-05-22T07:07:49.677Z,100900.89
2023-05-22T07:10:20.683Z,100901.52
2023-05-22T07:12:49.444Z,100902.70
2023-05-22T07:15:25.622Z,100902.92
2023-05-22T07:17:55.687Z,100900.30
2023-05-22T07:20:25.749Z,100902.13
2023-05-22T07:23:11.599Z,100900.55
2023-05-22T07:25:42.652Z,100899.60
2023-05-22T07:28:12.527Z,100902.88
2023-05-22T07:30:51.631Z,100903.42
2023-05-22T07:33:22.980Z,100899.03
2023-05-22T07:35:52.638Z,100897.85
2023-05-22T07:38:21.875Z,100895.50
2023-05-22T07:40:58.317Z,100895.01
2023-05-22T07:43:27.826Z,100897.52
2023-05-22T07:45:57.529Z,100898.52
2023-05-22T07:48:28.675Z,100897.79
2023-05-22T07:50:57.770Z,100894.25
2023-05-22T07:53:27.692Z,100894.58
2023-05-22T07:55:58.481Z,100894.12
2023-05-22T07:58:27.964Z,100893.40
2023-05-22T08:00:57.614Z,100894.07
2023-05-22T08:03:28.075Z,100892.34
2023-05-22T08:05:58.782Z,100889.93
2023-05-22T08:08:30.465Z,100888.45
2023-05-22T08:11:04.415Z,100885.91
2023-05-22T08:13:35.247Z,100884.16
2023-05-22T08:16:04.328Z,100884.33
2023-05-22T08:18:33.156Z,100883.05
2023-05-22T08:21:05.694Z,100876.53
2023-05-22T08:23:36.338Z,100879.04
2023-05-22T08:26:08.207Z,100877.14
2023-05-22T08:28:41.666Z,100875.50
2023-05-22T08:31:11.253Z,100868.15
2023-05-22T08:33:40.520Z,100867.91
2023-05-22T08:36:09.804Z,100870.58
2023-05-22T08:38:38.995Z,100871.10
2023-05-22T08:41:10.596Z,100869.91
2023-05-22T08:43:40.471Z,100871.38
2023-05-22T08:46:10.701Z,100871.23
2023-05-22T08:48:41.824Z,100865.19
2023-05-22T08:51:16.344Z,100864.16
2023-05-22T08:53:48.690Z,100861.58
2023-05-22T08:56:18.793Z,100863.90
2023-05-22T08:58:47.769Z,100860.98
2023-05-22T09:01:20.843Z,100859.31
2023-05-22T09:03:54.765Z,100860.92
2023-05-22T09:06:23.460Z,100860.23
2023-05-22T09:08:52.899Z,100855.70
2023-05-22T09:11:23.049Z,100853.96
2023-05-22T09:13:52.596Z,100850.52
2023-05-22T09:16:22.044Z,100848.59
2023-05-22T09:18:51.011Z,100846.58
2023-05-22T09:21:29.446Z,100843.48
2023-05-22T09:24:01.725Z,100840.02
2023-05-22T09:26:34.522Z,100838.47
2023-05-22T09:29:06.811Z,100835.61
2023-05-22T09:31:43.371Z,100836.30
2023-05-22T09:34:17.383Z,100831.25
2023-05-22T09:36:46.650Z,100832.27
2023-05-22T09:39:18.864Z,100832.44
2023-05-22T09:41:47.592Z,100828.80
2023-05-22T09:44:19.677Z,100826.30
2023-05-22T09:46:48.801Z,100826.94
2023-05-22T09:49:20.453Z,100826.98
2023-05-22T09:51:54.035Z,100830.58
2023-05-22T09:54:27.630Z,100824.38
2023-05-22T09:57:02.175Z,100825.46
2023-05-22T09:59:38.407Z,100824.17
2023-05-22T10:02:12.840Z,100823.91
2023-05-22T10:04:43.761Z,100825.77
2023-05-22T10:07:14.087Z,100822.08
2023-05-22T10:09:48.664Z,100822.44
2023-05-22T10:12:21.768Z,100822.75
2023-05-22T10:14:55.222Z,100819.14
2023-05-22T10:17:25.607Z,100819.98
2023-05-22T10:19:58.248Z,100820.09
2023-05-22T10:22:29.183Z,100819.69
2023-05-22T10:25:00.171Z,100813.48
2023-05-22T10:27:29.055Z,100810.64
2023-05-22T10:30:10.801Z,100809.88
2023-05-22T10:32:47.074Z,100809.81
2023-05-22T10:35:23.988Z,100814.23
2023-05-22T10:37:56.841Z,100811.36
2023-05-22T10:40:29.724Z,100810.89
2023-05-22T10:43:06.847Z,100807.83
2023-05-22T10:45:37.256Z,100805.52
2023-05-22T10:48:11.215Z,100801.75
2023-05-22T10:50:49.947Z,100800.80
2023-05-22T10:53:27.388Z,100800.39
2023-05-22T10:55:56.216Z,100795.38
2023-05-22T10:58:30.217Z,100786.41
2023-05-22T11:01:17.331Z,100786.10
2023-05-22T11:03:54.321Z,100787.63
2023-05-22T11:06:49.784Z,100788.45
2023-05-22T11:09:26.677Z,100786.59
2023-05-22T11:12:20.178Z,100780.84
2023-05-22T11:14:53.835Z,100782.34
2023-05-22T11:17:24.122Z,100781.98
2023-05-22T11:20:01.955Z,100781.89
2023-05-22T11:22:36.155Z,100775.60
2023-05-22T11:25:09.082Z,100769.30
2023-05-22T11:27:40.454Z,100767.96
2023-05-22T11:30:22.199Z,100758.30
2023-05-22T11:32:52.147Z,100756.13
2023-05-22T11:35:22.732Z,100752.96
2023-05-22T11:37:53.354Z,100747.92
2023-05-22T11:40:25.022Z,100744.17
2023-05-22T11:42:54.292Z,100747.83
2023-05-22T11:45:23.654Z,100748.02
2023-05-22T11:47:52.677Z,100749.32
2023-05-22T11:50:40.003Z,100749.50
2023-05-22T11:53:11.985Z,100747.63
2023-05-22T11:55:45.685Z,100742.23
2023-05-22T11:58:16.134Z,100744.05
2023-05-22T12:00:47.372Z,100744.15
2023-05-22T12:03:19.191Z,100745.17
2023-05-22T12:05:53.489Z,100743.41
2023-05-22T12:08:22.550Z,100740.89
2023-05-22T12:10:53.812Z,100733.09
2023-05-22T12:13:30.136Z,100734.46
2023-05-22T12:16:00.441Z,100734.69
2023-05-22T12:18:36.389Z,100732.27
2023-05-22T12:21:07.732Z,100733.29
2023-05-22T12:23:44.680Z,100727.30
2023-05-22T12:26:13.574Z,100726.11
2023-05-22T12:28:42.256Z,100721.06
2023-05-22T12:31:11.291Z,100722.06
2023-05-22T12:33:40.887Z,100716.60
2023-05-22T12:36:11.766Z,100715.05
2023-05-22T12:38:41.384Z,100714.98
2023-05-22T12:41:10.695Z,100713.16
2023-05-22T12:43:42.196Z,100713.24
2023-05-22T12:46:18.544Z,100710.72
2023-05-22T12:48:47.802Z,100712.11
2023-05-22T12:51:19.374Z,100708.71
2023-05-22T12:53:49.375Z,100705.77
2023-05-22T12:56:19.661Z,100704.89
2023-05-22T12:58:48.310Z,100704.88
2023-05-22T13:01:21.157Z,100706.02
2023-05-22T13:03:50.838Z,100699.94
2023-05-22T13:06:21.475Z,100700.52
2023-05-22T13:08:51.780Z,100695.52
2023-05-22T13:11:22.881Z,100696.31
2023-05-22T13:13:52.094Z,100694.95
2023-05-22T13:16:24.734Z,100694.87
2023-05-22T13:18:54.652Z,100690.05
2023-05-22T13:21:25.824Z,100692.63
2023-05-22T13:23:56.166Z,100690.32
2023-05-22T13:26:31.548Z,100694.08
2023-05-22T13:29:00.367Z,100693.35
2023-05-22T13:31:37.003Z,100692.31
2023-05-22T13:34:06.376Z,100687.28
2023-05-22T13:36:35.747Z,100689.56
2023-05-22T13:39:05.073Z,100686.17
2023-05-22T13:41:34.705Z,100685.33
2023-05-22T13:44:06.094Z,100681.21
2023-05-22T13:46:38.663Z,100680.95
2023-05-22T13:49:09.575Z,100677.73
2023-05-22T13:51:41.345Z,100674.35
2023-05-22T13:54:14.166Z,100673.17
2023-05-22T13:56:46.576Z,100671.90
2023-05-22T13:59:16.709Z,100670.77
2023-05-22T14:01:45.907Z,100668.20
2023-05-22T14:04:14.796Z,100668.63
2023-05-22T14:06:47.077Z,100662.52
2023-05-22T14:09:21.945Z,100662.23
2023-05-22T14:11:54.988Z,100655.98
2023-05-22T14:14:24.139Z,100656.92
2023-05-22T14:16:53.596Z,100654.73
2023-05-22T14:19:22.438Z,100654.48
2023-05-22T14:21:58.729Z,100653.42
2023-05-22T14:24:29.251Z,100654.16
2023-05-22T14:26:58.758Z,100652.56
2023-05-22T14:29:30.647Z,100658.91
2023-05-22T14:32:04.557Z,100656.35
2023-05-22T14:34:33.304Z,100658.22
2023-05-22T14:37:02.232Z,100653.02
2023-05-22T14:39:30.967Z,100649.20
2023-05-22T14:42:00.460Z,100648.91
2023-05-22T14:44:29.244Z,100648.87
2023-05-22T14:46:59.754Z,100644.64
2023-05-22T14:49:28.442Z,100639.75
2023-05-22T14:51:58.243Z,100640.61
2023-05-22T14:54:26.944Z,100634.88
2023-05-22T14:56:55.728Z,100635.30
2023-05-22T14:59:24.468Z,100637.55
2023-05-22T15:01:53.673Z,100631.52
2023-05-22T15:04:23.416Z,100632.59
2023-05-22T15:06:53.320Z,100630.39
2023-05-22T15:09:22.261Z,100631.64
2023-05-22T15:11:51.183Z,100633.45
2023-05-22T15:14:21.022Z,100631.13
2023-05-22T15:16:50.197Z,100630.13
2023-05-22T15:19:19.281Z,100625.27
2023-05-22T15:21:48.316Z,100625.79
2023-05-22T15:24:20.297Z,100622.84
2023-05-22T15:26:49.403Z,100618.88
2023-05-22T15:29:19.072Z,100618.77
2023-05-22T15:31:48.393Z,100621.67
2023-05-22T15:34:20.241Z,100619.19
2023-05-22T15:36:49.236Z,100614.09
2023-05-22T15:39:21.328Z,100613.77
2023-05-22T15:42:02.233Z,100614.44
2023-05-22T15:44:34.846Z,100608.26
2023-05-22T15:47:04.299Z,100606.62
2023-05-22T15:49:34.415Z,100604.33
2023-05-22T15:52:05.945Z,100603.71
2023-05-22T15:54:35.039Z,100599.20
2023-05-22T15:57:05.760Z,100596.33
2023-05-22T15:59:34.940Z,100589.98
2023-05-22T16:02:05.172Z,100588.58
2023-05-22T16:04:33.934Z,100585.32
2023-05-22T16:07:03.662Z,100581.95
2023-05-22T16:09:35.780Z,100585.56
2023-05-22T16:12:05.630Z,100585.57
2023-05-22T16:14:34.652Z,100583.02
2023-05-22T16:17:08.256Z,100582.95
2023-05-22T16:19:37.486Z,100581.59
2023-05-22T16:22:06.859Z,100573.30
2023-05-22T16:24:35.537Z,100575.55
2023-05-22T16:27:07.350Z,100569.25
2023-05-22T16:29:36.306Z,100572.09
2023-05-22T16:32:05.948Z,100567.63
2023-05-22T16:34:37.564Z,100562.77
2023-05-22T16:37:06.537Z,100569.80
2023-05-22T16:39:35.560Z,100569.92
2023-05-22T16:42:05.637Z,100574.36
2023-05-22T16:44:34.464Z,100575.23
2023-05-22T16:47:07.047Z,100572.86
2023-05-22T16:49:36.453Z,100576.63
2023-05-22T16:52:05.984Z,100575.34
2023-05-22T16:54:36.347Z,100579.86
2023-05-22T16:57:12.821Z,100576.75
2023-05-22T16:59:41.499Z,100575.95
2023-05-22T17:02:10.746Z,100578.76
2023-05-22T17:04:40.498Z,100582.81
2023-05-22T17:07:09.041Z,100584.98
2023-05-22T17:09:37.919Z,100588.70
2023-05-22T17:12:08.309Z,100589.52
2023-05-22T17:14:37.094Z,100588.88
2023-05-22T17:17:08.883Z,100592.27
2023-05-22T17:19:38.105Z,100589.67
2023-05-22T17:22:08.580Z,100587.94
2023-05-22T17:24:37.467Z,100590.64
2023-05-22T17:27:10.065Z,100587.50
2023-05-22T17:29:38.851Z,100587.41
2023-05-22T17:32:11.085Z,100586.07
2023-05-22T17:34:40.441Z,100586.27
2023-05-22T17:37:10.269Z,100587.69
2023-05-22T17:39:40.860Z,100586.73
2023-05-22T17:42:12.363Z,100586.05
2023-05-22T17:44:43.457Z,100586.50
2023-05-22T17:47:13.132Z,100582.43
2023-05-22T17:49:41.864Z,100580.48
2023-05-22T17:52:12.487Z,100576.08
2023-05-22T17:54:41.382Z,100585.73
2023-05-22T17:57:10.534Z,100583.29
2023-05-22T17:59:42.767Z,100580.48
2023-05-22T18:02:11.661Z,100576.48
2023-05-22T18:04:44.152Z,100575.91
2023-05-22T18:07:13.114Z,100575.84
2023-05-22T18:09:42.568Z,100577.95
2023-05-22T18:12:31.158Z,100579.91
2023-05-22T18:15:01.579Z,100579.21
2023-05-22T18:17:35.213Z,100578.89
2023-05-22T18:20:11.064Z,100577.79
2023-05-22T18:22:43.576Z,100577.91
2023-05-22T18:25:12.762Z,100573.55
2023-05-22T18:27:51.563Z,100572.79
2023-05-22T18:30:24.145Z,100577.71
2023-05-22T18:32:52.985Z,100574.80
2023-05-22T18:35:23.324Z,100572.30
2023-05-22T18:37:59.216Z,100573.52
2023-05-22T18:40:28.024Z,100578.06
2023-05-22T18:42:56.916Z,100581.55
2023-05-22T18:45:25.569Z,100577.27
2023-05-22T18:47:54.519Z,100582.08
2023-05-22T18:50:23.915Z,100581.65
2023-05-22T18:52:54.179Z,100583.97
2023-05-22T18:55:24.206Z,100582.08
2023-05-22T18:57:54.340Z,100584.48
2023-05-22T19:00:30.228Z,100583.58
2023-05-22T19:02:59.170Z,100583.45
2023-05-22T19:05:28.289Z,100587.17
2023-05-22T19:07:57.424Z,100589.61
2023-05-22T19:10:28.642Z,100589.02
2023-05-22T19:12:57.764Z,100590.01
2023-05-22T19:15:26.686Z,100589.33
2023-05-22T19:17:55.742Z,100595.45
2023-05-22T19:20:26.657Z,100595.23
2023-05-22T19:22:56.250Z,100595.31
2023-05-22T19:25:25.431Z,100594.35
2023-05-22T19:27:54.445Z,100594.74
2023-05-22T19:30:23.318Z,100596.22
2023-05-22T19:32:55.187Z,100596.61
2023-05-22T19:35:23.811Z,100591.79
2023-05-22T19:37:53.102Z,100589.09
2023-05-22T19:40:24.428Z,100590.30
2023-05-22T19:42:53.202Z,100587.41
2023-05-22T19:45:26.129Z,100586.21
2023-05-22T19:47:56.099Z,100586.27
2023-05-22T19:50:26.596Z,100583.58
2023-05-22T19:52:55.953Z,100588.52
2023-05-22T19:55:25.184Z,100587.68
2023-05-22T19:57:55.853Z,100586.33
2023-05-22T20:00:27.804Z,100587.41
2023-05-22T20:02:57.501Z,100590.37
2023-05-22T20:05:26.452Z,100585.80
2023-05-22T20:07:57.738Z,100584.89
2023-05-22T20:10:26.484Z,100588.99
2023-05-22T20:12:56.079Z,100588.15
2023-05-22T20:15:25.496Z,100587.21
2023-05-22T20:17:57.592Z,100587.84
2023-05-22T20:20:26.310Z,100582.33
2023-05-22T20:22:58.054Z,100584.38
2023-05-22T20:25:27.128Z,100580.65
2023-05-22T20:27:56.083Z,100580.66
2023-05-22T20:30:24.891Z,100578.61
2023-05-22T20:32:53.843Z,100581.34
2023-05-22T20:35:26.066Z,100579.30
2023-05-22T20:37:55.270Z,100575.80
2023-05-22T20:40:26.167Z,100571.70
2023-05-22T20:42:56.525Z,100576.23
2023-05-22T20:45:25.991Z,100575.77
2023-05-22T20:47:55.927Z,100572.23
2023-05-22T20:50:24.625Z,100571.83
2023-05-22T20:52:54.092Z,100567.55
2023-05-22T20:55:25.035Z,100568.33
2023-05-22T20:57:54.201Z,100567.60
2023-05-22T21:00:23.727Z,100568.92
2023-05-22T21:02:58.093Z,100571.23
2023-05-22T21:05:27.318Z,100571.30
2023-05-22T21:07:57.627Z,100576.34
2023-05-22T21:10:27.005Z,100576.50
2023-05-22T21:12:55.925Z,100573.77
2023-05-22T21:15:27.567Z,100572.52
2023-05-22T21:17:57.739Z,100573.48
2023-05-22T21:20:27.520Z,100566.83
2023-05-22T21:22:56.511Z,100566.27
2023-05-22T21:25:25.475Z,100560.91
2023-05-22T21:27:54.578Z,100560.85
2023-05-22T21:30:23.174Z,100560.56
2023-05-22T21:32:53.435Z,100566.02
2023-05-22T21:35:24.216Z,100563.47
2023-05-22T21:37:53.712Z,100563.33
2023-05-22T21:40:22.384Z,100562.29
2023-05-22T21:42:51.177Z,100566.73
2023-05-22T21:45:23.627Z,100566.50
2023-05-22T21:47:52.727Z,100566.99
2023-05-22T21:50:21.781Z,100571.77
2023-05-22T21:52:50.882Z,100569.77
2023-05-22T21:55:23.511Z,100564.98
2023-05-22T21:57:52.645Z,100565.66
2023-05-22T22:00:23.553Z,100565.96
2023-05-22T22:02:52.593Z,100566.19
2023-05-22T22:05:21.800Z,100564.41
2023-05-22T22:07:50.973Z,100563.86
2023-05-22T22:10:19.749Z,100565.46
2023-05-22T22:12:52.118Z,100563.59
2023-05-22T22:15:22.148Z,100567.22
2023-05-22T22:17:53.728Z,100564.77
2023-05-22T22:20:30.522Z,100560.89
2023-05-22T22:23:22.322Z,100563.45
2023-05-22T22:25:53.538Z,100563.73
2023-05-22T22:28:25.462Z,100560.63
2023-05-22T22:30:54.322Z,100564.53
2023-05-22T22:33:24.531Z,100559.67
2023-05-22T22:35:55.796Z,100560.78
2023-05-22T22:55:47.019Z,100557.09
2023-05-22T22:58:21.058Z,100554.78
2023-05-22T23:00:55.571Z,100554.39
2023-05-22T23:03:26.619Z,100551.23
2023-05-22T23:05:57.826Z,100548.85
2023-05-22T23:08:29.107Z,100545.20
2023-05-22T23:10:58.439Z,100542.95
2023-05-22T23:13:30.361Z,100541.24
2023-05-22T23:16:03.053Z,100539.54
2023-05-22T23:18:33.978Z,100535.38
2023-05-22T23:21:03.301Z,100535.79
2023-05-22T23:23:34.741Z,100530.30
2023-05-22T23:26:03.534Z,100527.55
2023-05-22T23:28:43.050Z,100527.10
2023-05-22T23:31:13.661Z,100527.02
2023-05-22T23:33:47.570Z,100525.77
2023-05-22T23:36:17.505Z,100522.83
2023-05-22T23:38:46.887Z,100519.58
2023-05-22T23:41:23.964Z,100512.08
2023-05-22T23:43:56.658Z,100513.14
2023-05-22T23:46:25.110Z,100513.05
2023-05-22T23:48:54.447Z,100516.40
2023-05-22T23:51:24.513Z,100512.06
2023-05-22T23:53:54.397Z,100509.49
2023-05-22T23:56:34.499Z,100510.06
2023-05-22T23:59:03.846Z,100512.98
